Abingdon, VA

09:13 AM EST am 04. Dezember 2016 (GMT -0500)
White's Mill | | Change Station

Höhe 2113 ft 36.77 °N, 81.98 °W | Updated 3 minutes ago

Light Rain
Leichter Regen
34.2 °F
gefühlte 30 °F
N
5.0
Wind Wechselnd Wind aus Nord-Nordwest
Gusts 5.0 mph

Heute
Max. -- | schwach -- °F
--% Regenrisiko
Gestern
Max. -- | schwach -- °F
Precip. -- inch
Druck 30.17 inch
Sichtweite 7.0 Meilen
Wolken Bedeckt 3900 ft
Windchill 30 °F
Taupunkt 33 °F
Feuchtigkeit 94%
Regen 0.05 inch
Schneehöhe Nicht verfügbar..
7:25 AM 5:11 PM
Erstes Viertel, 23% visible
METAR KVJI 041355Z AUTO 10010KT 7SM -RA OVC039 03/02 A3017 RMK AO2 P0001 T00330023
Druck 30.17 inch
Sichtweite 7.0 Meilen
Wolken Bedeckt 3900 ft
Windchill 30 °F
Taupunkt 33 °F
Feuchtigkeit 94%
Regen 0.05 inch
Schneehöhe Nicht verfügbar..
7:25 AM 5:11 PM
Erstes Viertel, 23% visible
METAR KVJI 041355Z AUTO 10010KT 7SM -RA OVC039 03/02 A3017 RMK AO2 P0001 T00330023

10-Day Weather Forecast

Almanac

Astronomie

Dec. 04, 2016 Aufgang Untergang
Genaue Zeit
Bürgerliche Dämmerung
Nautische Dämmerung
Astronomische Dämmerung
Mond
Länge des sichtbaren Lichts
Tageslänge
Tomorrow will be .
, % of the Moon is Illuminated

Heutige Rekorde

State Highs State Lows

Community

WunderPhotos

Upload Photos

1,955,598 Fotos hochgeladen!

WunderBlog® & News

Nearby

Luftqualität

  Luftqualität LQ Index Schadstoff
Not available.

Schneehöhe

Station Depth Höhe

Erdbebenaktivität

Stadt Distance Mag. Time & Date
Minimum magnitude displayed is 2.5.

küstennahe Wassertemperaturen

Ort Temperatur

Stations

Wetterstationen in der Umgebung

Stationsstandort Temp. Windchill Taupunkt Feuchtigkeit Wind Precip. Höhe Aktualisiert Art
                   

Watches & Warnings

There are currently no watches in effect.